Terminal Aerodrome Forecast
Issued by NWS

Home | Current Version | Previous Version | Text Only | Print | Product List | Glossary On
Versions: 1 2 3 4 5 6 7 8 9 10 11 12 13
000
FTUS42 KGSP 241728
TAFAND
TAF
KAND 241728Z 2418/2518 07010G15KT P6SM FEW040
     FM242300 06006KT P6SM FEW200
     FM251500 03010KT P6SM SCT200=

USA.gov is the U.S. government's official web portal to all federal, state and local government web resources and services.